This is the latest recevied weather packets stored in our database for station/object Ad4UU. If no packets are shown the sender has not sent any weather packets the latest 10 day(s).
| Time | Temp. | Humidity | Pressure | Rain* | Wind** | Luminosity | Snow |
|---|---|---|---|---|---|---|---|
| 1777774542 | 17.78° C | 89% | 1015.2 hPa | 0 mm | - | - | - |
| 1777774230 | 17.78° C | 89% | 1015.1 hPa | 0 mm | - | - | - |
| 1777773648 | 17.78° C | 90% | 1014.7 hPa | 0 mm | - | - | - |
| 1777773030 | 17.78° C | 91% | 1014.4 hPa | 0 mm | - | - | - |
| 1777772747 | 18.33° C | 91% | 1014.1 hPa | 0 mm | - | - | - |
| 1777772131 | 18.33° C | 91% | 1013.8 hPa | 0 mm | - | - | - |
| 1777770946 | 19.44° C | 90% | 1013.8 hPa | 0 mm | - | - | - |
| 1777770631 | 20° C | 89% | 1013.9 hPa | 0 mm | - | - | - |
| 1777769731 | 21.11° C | 88% | 1013.3 hPa | 0 mm | - | - | - |
| 1777769141 | 21.11° C | 88% | 1012.9 hPa | 0 mm | - | - | - |
| 1777763760 | 22.78° C | 91% | 1011.9 hPa | 0 mm | - | - | - |
| 1777761947 | 23.33° C | 91% | 1011.5 hPa | 0 mm | - | - | - |
| 1777761331 | 22.78° C | 91% | 1011.2 hPa | 0 mm | - | - | - |
| 1777758931 | 22.78° C | 94% | 1010.8 hPa | 0 mm | - | - | - |
| 1777758348 | 22.22° C | 95% | 1010.7 hPa | 0 mm | - | - | - |
| 1777757454 | 22.22° C | 96% | 1010.8 hPa | 0 mm | - | - | - |
| 1777755330 | 22.22° C | 95% | 1010.7 hPa | 0 mm | - | - | - |
| 1777755034 | 22.22° C | 96% | 1010.7 hPa | 0 mm | - | - | - |
| 1777753230 | 21.67° C | 96% | 1010.3 hPa | 0 mm | - | - | - |
| 1777748734 | 20.56° C | 96% | 1012.2 hPa | 2.54 mm | - | - | - |
| 1777744233 | 19.44° C | 95% | 1011.8 hPa | 7.37 mm | - | - | - |
| 1777742147 | 20.56° C | 87% | 1013.4 hPa | 3.56 mm | - | - | - |
| 1777741250 | 27.22° C | 77% | 1012.3 hPa | 0 mm | - | - | - |
| 1777740632 | 27.22° C | 76% | 1012 hPa | 0 mm | - | - | - |
| 1777736757 | 27.78° C | 73% | 1011.8 hPa | 0 mm | - | - | - |
* Rain latest hour (hover to see other rain measurements)
** Current wind speed in m/s (hover to see current wind gust speed)